Anita, IA

6:16 PM CDT on July 30, 2014 (GMT -0500)
16th St and Olive (KIAATLAN2) Elev 1270 ft | 41.39 °N, 95.00 °W | Change Station

Current weather conditions updated 5 seconds ago

Mostly Cloudy
Mostly Cloudy
76.8 °F
Feels Like 78 °F
N
0.0
Wind Variable Wind from North
Gusts 0.0 mph

Tomorrow is forecast to be Warmer than today. Partly cloudy with a stray thunderstorm tomorrow night.

Today
High -- | Low -- °F
--% Chance of Precip.
Yesterday
High -- | Low -- °F
Precip. -- in
6:12 AM 8:38 PM
Waxing Crescent, 14% visible
Pressure 30.10 in
Visibility 10.0 miles
Clouds Mostly Cloudy 6000 ft
Heat Index 78 °F
Dew Point 53 °F
Humidity 43%
Rainfall 0.00 in
Snow Depth Not available.
UV 2 out of 12
Pollen 7.10 out of 12
Air Quality Not available.
Flu Activity Not available.
METAR KAIO 302255Z AUTO 01006KT 10SM BKN060 25/13 A3010 RMK AO2

More Conditions Fewer Conditions

Pressure 30.10 in
Visibility 10.0 miles
Clouds Mostly Cloudy 6000 ft
Heat Index 78 °F
Dew Point 53 °F
Humidity 43%
Rainfall 0.00 in
Snow Depth Not available.
UV 2 out of 12
Pollen 7.10 out of 12
Air Quality Not available.
Flu Activity Not available.
METAR KAIO 302255Z AUTO 01006KT 10SM BKN060 25/13 A3010 RMK AO2

More Conditions Fewer Conditions

10-Day Weather Forecast

Almanac

Astronomy

Jul. 30, 2014 Rise Set
Actual Time 6:12 AM CDT 8:38 PM CDT
Civil Twilight 5:40 AM CDT 9:09 PM CDT
Nautical Twilight 5:01 AM CDT 9:48 PM CDT
Astronomical Twilight 4:18 AM CDT 10:31 PM CDT
Moon 9:47 AM CDT 10:17 PM CDT
Length of Visible Light 15h 29m
Length of Day
14h 26m
Tomorrow will be 2m 3s shorter.
Waxing Crescent, 14% of the Moon is Illuminated
Today
Waxing Crescent
Aug 3
First Quarter
Aug 10
Full
Aug 17
Last Quarter
Aug 25
New

Today's Extremes

State Highs State Lows

Community

WunderPhotos

Upload Photos

1,739,248 photos uploaded!

Nearby

Snow Depth

Station Depth Elevation
No new snow has been reported.

Earthquake Activity

City Distance Mag. Time & Date
No recent earthquake activity has been reported nearby.
Minimum magnitude displayed is 2.5.

Coastal Water Temperatures

Place Temperature
No Stations Reporting

Nearby Weather Stations

Station Location Temp. Heat Index Dew Point Humidity Wind Precip. Elev Updated Type
16th St and Olive, Atlantic, IA 76.8 °F 78 °F 53 °F 43% North  at  0.0 mph 0.00 in / hr 1270 ft 6:16 PM CDT Rapid Fire
Chambers House, Audubon, IA 76.4 °F 78 °F 58 °F 54% WNW  at  0.0 mph 0.00 in / hr 1440 ft 6:15 PM CDT Normal
Herbers Seed, Audubon, IA 76.7 °F 78 °F 56 °F 49% WNW  at  0.0 mph - / hr 1385 ft 6:15 PM CDT Normal
NFS-64919 Yankton Rd, Villisca, IA 78.0 °F 79 °F 58 °F 50% NE  at  2.0 mph 0.00 in / hr 1152 ft 6:15 PM CDT Normal

Show More Stations Show Fewer Stations